Rms Voerde — V2AD8 — position and weather

sailwx.info

Track history (hours):
 
Tides and Currents Weather Stations Pressure Air Temp Water Temp Dewpoint Dewpoint Depression Visibility Wind Speed Wind Dir Waves Ship Positions

Rms Voerde

Last reported at 2017-Jan-24 20:33 UTC. Time now 2017-Jan-24 23:24 UTC.
Position N 59°15' E 005°42'.

Length 90 m; draft 4 m.

Type: Ship. MMSI: 304010905.

Date/timePositionNaut miles runAvg speedWind from/ knotsBaromVisibWave heightAir tempDewpointWater temp
2017-Jan-24 20:33N 59°15' E 005°42'1010.5
2017-Jan-24 19:33N 59°07' E 005°28'10 9.6
2017-Jan-24 18:33N 58°59' E 005°20'1110.7
2017-Jan-24 17:33N 58°48' E 005°19'1110.9
2017-Jan-24 16:33N 58°37' E 005°23'1010.2
2017-Jan-24 15:33N 58°29' E 005°35'1010.3
2017-Jan-24 14:33N 58°24' E 005°52'1110.0
2017-Jan-24 13:25N 58°19' E 006°11'8 9.7
2017-Jan-24 12:33N 58°16' E 006°26'14 0.6
2017-Jan-23 14:31N 58°17' E 006°53'0 0.0
2017-Jan-23 13:33N 58°17' E 006°53'0 0.0
2017-Jan-23 12:33N 58°17' E 006°53'6 2.7
2017-Jan-23 10:26N 58°13' E 006°44'4 3.9
2017-Jan-23 09:17N 58°17' E 006°39'0 0.0
2017-Jan-23 08:29N 58°17' E 006°39'0 0.0
2017-Jan-23 07:30N 58°17' E 006°39'0 0.0
2017-Jan-23 06:17N 58°17' E 006°39'0 0.0
2017-Jan-23 05:17N 58°17' E 006°39'0 0.0
2017-Jan-23 04:29N 58°17' E 006°39'0 0.0
2017-Jan-23 03:23N 58°17' E 006°39'0 0.0
2017-Jan-23 01:11N 58°17' E 006°39'0 0.0
2017-Jan-22 23:11N 58°17' E 006°39'0 0.0
2017-Jan-22 22:11N 58°17' E 006°39'0 0.0
2017-Jan-22 21:29N 58°17' E 006°39'0 0.0
2017-Jan-22 20:29N 58°17' E 006°39'0 0.0
2017-Jan-22 19:29N 58°17' E 006°39'0 0.0
2017-Jan-22 18:17N 58°17' E 006°39'0 0.0
2017-Jan-22 17:05N 58°17' E 006°39'0 0.0
2017-Jan-22 16:29N 58°17' E 006°39'0 0.0
2017-Jan-22 15:23N 58°17' E 006°39'0 0.0
2017-Jan-22 14:23N 58°17' E 006°39'0 0.0
2017-Jan-22 13:23N 58°17' E 006°39'0 0.0
2017-Jan-22 12:23N 58°17' E 006°39'0 0.0
2017-Jan-22 11:23N 58°17' E 006°39'0 0.0
2017-Jan-22 10:29N 58°17' E 006°39'3 1.6
2017-Jan-22 08:32N 58°14' E 006°39'1010.0
2017-Jan-22 07:33N 58°17' E 006°21'4 3.9
2017-Jan-22 06:33N 58°20' E 006°16'0 0.0
2017-Jan-22 05:33N 58°20' E 006°16'0 0.0
2017-Jan-22 04:33N 58°20' E 006°16'0 0.0
2017-Jan-22 03:33N 58°20' E 006°16'0 0.0
2017-Jan-22 02:27N 58°20' E 006°16'0 0.0
2017-Jan-22 01:33N 58°20' E 006°16'0 0.0
2017-Jan-22 00:33N 58°20' E 006°16'0 0.0
2017-Jan-21 23:27N 58°20' E 006°16'0 0.0
2017-Jan-21 22:21N 58°20' E 006°16'0 0.0
2017-Jan-21 21:21N 58°20' E 006°16'0 0.0
2017-Jan-21 20:27N 58°20' E 006°16'0 0.0
2017-Jan-21 19:33N 58°20' E 006°16'0 0.0
2017-Jan-21 18:33N 58°20' E 006°16'0 0.0
2017-Jan-21 17:33N 58°20' E 006°16'0 0.0
2017-Jan-21 16:33N 58°20' E 006°16'0 0.0
2017-Jan-21 15:33N 58°20' E 006°16'0 0.0
2017-Jan-21 14:33N 58°20' E 006°16'0 0.0
2017-Jan-21 13:33N 58°20' E 006°16'0 0.0
2017-Jan-21 12:33N 58°20' E 006°16'0 0.0
2017-Jan-21 11:33N 58°20' E 006°16'3 3.4
2017-Jan-21 10:33N 58°17' E 006°13'9 9.0
2017-Jan-21 09:33N 58°08' E 006°20'1010.1
2017-Jan-21 08:33N 58°01' E 006°33'9 8.8
2017-Jan-21 07:32N 57°57' E 006°48'10 9.6
2017-Jan-21 06:31N 57°54' E 007°06'7110.0
2017-Jan-20 23:25N 57°50' E 009°20'19 9.4
2017-Jan-20 21:23N 57°50' E 009°56'8 9.1
2017-Jan-20 20:33N 57°49' E 010°10'9 9.0
2017-Jan-20 19:33N 57°49' E 010°27'8 8.5
2017-Jan-20 18:33N 57°49' E 010°43'9 8.7
2017-Jan-20 17:33N 57°44' E 010°56'10 9.8
2017-Jan-20 16:33N 57°37' E 011°09'10 9.7
2017-Jan-20 15:33N 57°30' E 011°22'9 8.8
2017-Jan-20 14:33N 57°22' E 011°30'9 9.3
2017-Jan-20 13:34N 57°14' E 011°36'79 9.9
2017-Jan-20 05:33N 56°03' E 012°40'1010.1
2017-Jan-20 04:33N 55°53' E 012°44'1010.2
2017-Jan-20 03:33N 55°43' E 012°41'10 9.9
2017-Jan-20 02:33N 55°33' E 012°43'1010.1
2017-Jan-20 01:33N 55°23' E 012°41'8 8.5
2017-Jan-20 00:33N 55°16' E 012°50'10 9.5
2017-Jan-19 23:33N 55°15' E 013°07'19 9.3
2017-Jan-19 21:28N 55°14' E 013°41'9 9.7
2017-Jan-19 20:32N 55°14' E 013°57'9 9.6
2017-Jan-19 19:33N 55°14' E 014°13'9 8.9
2017-Jan-19 18:33N 55°19' E 014°25'10 9.5
2017-Jan-19 17:33N 55°26' E 014°37'9 8.6
2017-Jan-19 16:34N 55°27' E 014°52'9 8.8
2017-Jan-19 15:30N 55°24' E 015°08'8 8.8
2017-Jan-19 14:33N 55°23' E 015°23'116 6.4
2017-Jan-18 20:33N 54°50' E 018°37'9 9.2
2017-Jan-18 19:33N 54°46' E 018°50'8 8.4
2017-Jan-18 18:33N 54°38' E 018°56'10 9.5
2017-Jan-18 17:33N 54°32' E 018°43'7 6.8
2017-Jan-18 16:32N 54°32' E 018°31'0 0.0
2017-Jan-18 15:32N 54°32' E 018°31'0 0.0
2017-Jan-18 14:32N 54°32' E 018°31'0 0.0
2017-Jan-18 13:32N 54°32' E 018°31'0 0.0
2017-Jan-18 12:32N 54°32' E 018°31'0 0.0
2017-Jan-18 11:32N 54°32' E 018°31'0 0.0
2017-Jan-18 10:32N 54°32' E 018°31'0 0.0
2017-Jan-18 09:32N 54°32' E 018°31'0 0.0
2017-Jan-18 08:32N 54°32' E 018°31'0 0.0
2017-Jan-18 07:32N 54°32' E 018°31'0 0.0
2017-Jan-18 06:32N 54°32' E 018°31'0 0.0
2017-Jan-18 05:32N 54°32' E 018°31'0 0.0
2017-Jan-18 04:32N 54°32' E 018°31'0 0.0
2017-Jan-18 03:32N 54°32' E 018°31'0 0.0
2017-Jan-18 02:32N 54°32' E 018°31'0 0.0
2017-Jan-18 01:33N 54°32' E 018°31'0 0.0
2017-Jan-18 00:32N 54°32' E 018°31'0 0.0
2017-Jan-17 23:32N 54°32' E 018°31'0 0.0
2017-Jan-17 22:32N 54°32' E 018°31'0 0.0
2017-Jan-17 21:32N 54°32' E 018°31'0 0.0
2017-Jan-17 20:32N 54°32' E 018°31'0 0.0
2017-Jan-17 19:32N 54°32' E 018°31'0 0.0
2017-Jan-17 18:33N 54°32' E 018°31'7 6.9
2017-Jan-17 17:33N 54°32' E 018°43'10 9.5
2017-Jan-17 16:34N 54°39' E 018°55'1010.1
2017-Jan-17 15:33N 54°48' E 018°46'1110.6
2017-Jan-17 14:34N 54°53' E 018°31'1010.3
2017-Jan-17 13:33N 54°56' E 018°13'218 9.5
2017-Jan-16 14:30N 54°11' E 012°05'2 2.4
2017-Jan-16 13:31N 54°09' E 012°08'0 0.0
2017-Jan-16 12:28N 54°09' E 012°08'0 0.0
2017-Jan-16 09:19N 54°09' E 012°08'0 0.0
2017-Jan-16 06:07N 54°09' E 012°08'0 0.0
2017-Jan-16 03:33N 54°09' E 012°08'15 7.7
2017-Jan-16 01:33N 54°21' E 011°52'29 9.6
2017-Jan-15 22:33N 54°35' E 011°08'10 9.6
2017-Jan-15 21:33N 54°35' E 010°52'10 9.9
2017-Jan-15 20:33N 54°33' E 010°35'46 6.6
2017-Jan-15 13:33N 54°10' E 009°26'9 7.5
2017-Jan-15 12:21N 54°02' E 009°18'7 8.2
2017-Jan-15 11:33N 53°57' E 009°13'4 4.0
2017-Jan-15 10:33N 53°54' E 009°09'2 2.3
2017-Jan-15 09:33N 53°53' E 009°05'7 6.7
2017-Jan-15 08:33N 53°50' E 008°54'6 6.1
2017-Jan-15 07:33N 53°52' E 008°44'5 5.4
2017-Jan-15 06:34N 53°56' E 008°39'6 6.3
2017-Jan-15 05:33N 53°58' E 008°29'6 6.4
2017-Jan-15 04:33N 53°60' E 008°19'7 6.7
2017-Jan-15 03:33N 53°59' E 008°07'7 6.9
2017-Jan-15 02:33N 53°58' E 007°56'  
Track history (hours):
 
Tides and Currents Weather Stations Pressure Air Temp Water Temp Dewpoint Dewpoint Depression Visibility Wind Speed Wind Dir Waves Ship Positions

Rms Voerde

Last reported at 2017-Jan-24 20:33 UTC. Time now 2017-Jan-24 23:24 UTC.
Position N 59°15' E 005°42'.

Length 90 m; draft 4 m.

Type: Ship. MMSI: 304010905.

Date/timePositionNaut miles runAvg speedWind from/ knotsBaromVisibWave heightAir tempDewpointWater temp
2017-Jan-24 20:33N 59°15' E 005°42'1010.5
2017-Jan-24 19:33N 59°07' E 005°28'10 9.6
2017-Jan-24 18:33N 58°59' E 005°20'1110.7
2017-Jan-24 17:33N 58°48' E 005°19'1110.9
2017-Jan-24 16:33N 58°37' E 005°23'1010.2
2017-Jan-24 15:33N 58°29' E 005°35'1010.3
2017-Jan-24 14:33N 58°24' E 005°52'1110.0
2017-Jan-24 13:25N 58°19' E 006°11'8 9.7
2017-Jan-24 12:33N 58°16' E 006°26'14 0.6
2017-Jan-23 14:31N 58°17' E 006°53'0 0.0
2017-Jan-23 13:33N 58°17' E 006°53'0 0.0
2017-Jan-23 12:33N 58°17' E 006°53'6 2.7
2017-Jan-23 10:26N 58°13' E 006°44'4 3.9
2017-Jan-23 09:17N 58°17' E 006°39'0 0.0
2017-Jan-23 08:29N 58°17' E 006°39'0 0.0
2017-Jan-23 07:30N 58°17' E 006°39'0 0.0
2017-Jan-23 06:17N 58°17' E 006°39'0 0.0
2017-Jan-23 05:17N 58°17' E 006°39'0 0.0
2017-Jan-23 04:29N 58°17' E 006°39'0 0.0
2017-Jan-23 03:23N 58°17' E 006°39'0 0.0
2017-Jan-23 01:11N 58°17' E 006°39'0 0.0
2017-Jan-22 23:11N 58°17' E 006°39'0 0.0
2017-Jan-22 22:11N 58°17' E 006°39'0 0.0
2017-Jan-22 21:29N 58°17' E 006°39'0 0.0
2017-Jan-22 20:29N 58°17' E 006°39'0 0.0
2017-Jan-22 19:29N 58°17' E 006°39'0 0.0
2017-Jan-22 18:17N 58°17' E 006°39'0 0.0
2017-Jan-22 17:05N 58°17' E 006°39'0 0.0
2017-Jan-22 16:29N 58°17' E 006°39'0 0.0
2017-Jan-22 15:23N 58°17' E 006°39'0 0.0
2017-Jan-22 14:23N 58°17' E 006°39'0 0.0
2017-Jan-22 13:23N 58°17' E 006°39'0 0.0
2017-Jan-22 12:23N 58°17' E 006°39'0 0.0
2017-Jan-22 11:23N 58°17' E 006°39'0 0.0
2017-Jan-22 10:29N 58°17' E 006°39'3 1.6
2017-Jan-22 08:32N 58°14' E 006°39'1010.0
2017-Jan-22 07:33N 58°17' E 006°21'4 3.9
2017-Jan-22 06:33N 58°20' E 006°16'0 0.0
2017-Jan-22 05:33N 58°20' E 006°16'0 0.0
2017-Jan-22 04:33N 58°20' E 006°16'0 0.0
2017-Jan-22 03:33N 58°20' E 006°16'0 0.0
2017-Jan-22 02:27N 58°20' E 006°16'0 0.0
2017-Jan-22 01:33N 58°20' E 006°16'0 0.0
2017-Jan-22 00:33N 58°20' E 006°16'0 0.0
2017-Jan-21 23:27N 58°20' E 006°16'0 0.0
2017-Jan-21 22:21N 58°20' E 006°16'0 0.0
2017-Jan-21 21:21N 58°20' E 006°16'0 0.0
2017-Jan-21 20:27N 58°20' E 006°16'0 0.0
2017-Jan-21 19:33N 58°20' E 006°16'0 0.0
2017-Jan-21 18:33N 58°20' E 006°16'0 0.0
2017-Jan-21 17:33N 58°20' E 006°16'0 0.0
2017-Jan-21 16:33N 58°20' E 006°16'0 0.0
2017-Jan-21 15:33N 58°20' E 006°16'0 0.0
2017-Jan-21 14:33N 58°20' E 006°16'0 0.0
2017-Jan-21 13:33N 58°20' E 006°16'0 0.0
2017-Jan-21 12:33N 58°20' E 006°16'0 0.0
2017-Jan-21 11:33N 58°20' E 006°16'3 3.4
2017-Jan-21 10:33N 58°17' E 006°13'9 9.0
2017-Jan-21 09:33N 58°08' E 006°20'1010.1
2017-Jan-21 08:33N 58°01' E 006°33'9 8.8
2017-Jan-21 07:32N 57°57' E 006°48'10 9.6
2017-Jan-21 06:31N 57°54' E 007°06'7110.0
2017-Jan-20 23:25N 57°50' E 009°20'19 9.4
2017-Jan-20 21:23N 57°50' E 009°56'8 9.1
2017-Jan-20 20:33N 57°49' E 010°10'9 9.0
2017-Jan-20 19:33N 57°49' E 010°27'8 8.5
2017-Jan-20 18:33N 57°49' E 010°43'9 8.7
2017-Jan-20 17:33N 57°44' E 010°56'10 9.8
2017-Jan-20 16:33N 57°37' E 011°09'10 9.7
2017-Jan-20 15:33N 57°30' E 011°22'9 8.8
2017-Jan-20 14:33N 57°22' E 011°30'9 9.3
2017-Jan-20 13:34N 57°14' E 011°36'79 9.9
2017-Jan-20 05:33N 56°03' E 012°40'1010.1
2017-Jan-20 04:33N 55°53' E 012°44'1010.2
2017-Jan-20 03:33N 55°43' E 012°41'10 9.9
2017-Jan-20 02:33N 55°33' E 012°43'1010.1
2017-Jan-20 01:33N 55°23' E 012°41'8 8.5
2017-Jan-20 00:33N 55°16' E 012°50'10 9.5
2017-Jan-19 23:33N 55°15' E 013°07'19 9.3
2017-Jan-19 21:28N 55°14' E 013°41'9 9.7
2017-Jan-19 20:32N 55°14' E 013°57'9 9.6
2017-Jan-19 19:33N 55°14' E 014°13'9 8.9
2017-Jan-19 18:33N 55°19' E 014°25'10 9.5
2017-Jan-19 17:33N 55°26' E 014°37'9 8.6
2017-Jan-19 16:34N 55°27' E 014°52'9 8.8
2017-Jan-19 15:30N 55°24' E 015°08'8 8.8
2017-Jan-19 14:33N 55°23' E 015°23'116 6.4
2017-Jan-18 20:33N 54°50' E 018°37'9 9.2
2017-Jan-18 19:33N 54°46' E 018°50'8 8.4
2017-Jan-18 18:33N 54°38' E 018°56'10 9.5
2017-Jan-18 17:33N 54°32' E 018°43'7 6.8
2017-Jan-18 16:32N 54°32' E 018°31'0 0.0
2017-Jan-18 15:32N 54°32' E 018°31'0 0.0
2017-Jan-18 14:32N 54°32' E 018°31'0 0.0
2017-Jan-18 13:32N 54°32' E 018°31'0 0.0
2017-Jan-18 12:32N 54°32' E 018°31'0 0.0
2017-Jan-18 11:32N 54°32' E 018°31'0 0.0
2017-Jan-18 10:32N 54°32' E 018°31'0 0.0
2017-Jan-18 09:32N 54°32' E 018°31'0 0.0
2017-Jan-18 08:32N 54°32' E 018°31'0 0.0
2017-Jan-18 07:32N 54°32' E 018°31'0 0.0
2017-Jan-18 06:32N 54°32' E 018°31'0 0.0
2017-Jan-18 05:32N 54°32' E 018°31'0 0.0
2017-Jan-18 04:32N 54°32' E 018°31'0 0.0
2017-Jan-18 03:32N 54°32' E 018°31'0 0.0
2017-Jan-18 02:32N 54°32' E 018°31'0 0.0
2017-Jan-18 01:33N 54°32' E 018°31'0 0.0
2017-Jan-18 00:32N 54°32' E 018°31'0 0.0
2017-Jan-17 23:32N 54°32' E 018°31'0 0.0
2017-Jan-17 22:32N 54°32' E 018°31'0 0.0
2017-Jan-17 21:32N 54°32' E 018°31'0 0.0
2017-Jan-17 20:32N 54°32' E 018°31'0 0.0
2017-Jan-17 19:32N 54°32' E 018°31'0 0.0
2017-Jan-17 18:33N 54°32' E 018°31'7 6.9
2017-Jan-17 17:33N 54°32' E 018°43'10 9.5
2017-Jan-17 16:34N 54°39' E 018°55'1010.1
2017-Jan-17 15:33N 54°48' E 018°46'1110.6
2017-Jan-17 14:34N 54°53' E 018°31'1010.3
2017-Jan-17 13:33N 54°56' E 018°13'218 9.5
2017-Jan-16 14:30N 54°11' E 012°05'2 2.4
2017-Jan-16 13:31N 54°09' E 012°08'0 0.0
2017-Jan-16 12:28N 54°09' E 012°08'0 0.0
2017-Jan-16 09:19N 54°09' E 012°08'0 0.0
2017-Jan-16 06:07N 54°09' E 012°08'0 0.0
2017-Jan-16 03:33N 54°09' E 012°08'15 7.7
2017-Jan-16 01:33N 54°21' E 011°52'29 9.6
2017-Jan-15 22:33N 54°35' E 011°08'10 9.6
2017-Jan-15 21:33N 54°35' E 010°52'10 9.9
2017-Jan-15 20:33N 54°33' E 010°35'46 6.6
2017-Jan-15 13:33N 54°10' E 009°26'9 7.5
2017-Jan-15 12:21N 54°02' E 009°18'7 8.2
2017-Jan-15 11:33N 53°57' E 009°13'4 4.0
2017-Jan-15 10:33N 53°54' E 009°09'2 2.3
2017-Jan-15 09:33N 53°53' E 009°05'7 6.7
2017-Jan-15 08:33N 53°50' E 008°54'6 6.1
2017-Jan-15 07:33N 53°52' E 008°44'5 5.4
2017-Jan-15 06:34N 53°56' E 008°39'6 6.3
2017-Jan-15 05:33N 53°58' E 008°29'6 6.4
2017-Jan-15 04:33N 53°60' E 008°19'7 6.7
2017-Jan-15 03:33N 53°59' E 008°07'7 6.9
2017-Jan-15 02:33N 53°58' E 007°56'  

Dump ship's entire track history